createdAt,value
2022-08-27T00:02:17.750Z,71.80
2022-08-27T00:04:47.803Z,72.10
2022-08-27T00:07:16.483Z,72.00
2022-08-27T00:09:45.070Z,72.10
2022-08-27T00:12:13.773Z,72.00
2022-08-27T00:14:42.321Z,72.50
2022-08-27T00:17:11.258Z,72.50
2022-08-27T00:19:40.181Z,72.30
2022-08-27T00:22:12.208Z,72.30
2022-08-27T00:24:48.723Z,72.10
2022-08-27T00:27:17.537Z,72.10
2022-08-27T00:29:46.004Z,72.20
2022-08-27T00:32:14.567Z,72.50
2022-08-27T00:34:43.065Z,72.50
2022-08-27T00:37:12.963Z,72.50
2022-08-27T00:39:41.684Z,72.50
2022-08-27T00:42:10.297Z,72.30
2022-08-27T00:44:39.017Z,72.30
2022-08-27T00:47:12.046Z,72.30
2022-08-27T00:49:44.618Z,72.50
2022-08-27T00:52:22.154Z,72.30
2022-08-27T00:54:52.989Z,73.20
2022-08-27T00:57:22.275Z,72.30
2022-08-27T00:59:50.782Z,72.40
2022-08-27T01:02:26.233Z,72.80
2022-08-27T01:05:00.692Z,73.00
2022-08-27T01:07:33.168Z,73.00
2022-08-27T01:10:03.635Z,73.00
2022-08-27T01:12:34.856Z,73.60
2022-08-27T01:15:07.302Z,73.40
2022-08-27T01:17:38.352Z,73.40
2022-08-27T01:20:11.091Z,73.40
2022-08-27T01:22:50.413Z,73.60
2022-08-27T01:25:21.434Z,73.70
2022-08-27T01:27:50.155Z,73.40
2022-08-27T01:30:20.976Z,73.70
2022-08-27T01:32:49.966Z,73.50
2022-08-27T01:35:20.532Z,73.70
2022-08-27T01:37:52.478Z,73.50
2022-08-27T01:40:23.159Z,73.50
2022-08-27T01:42:54.581Z,73.90
2022-08-27T01:45:25.894Z,73.50
2022-08-27T01:47:54.442Z,73.90
2022-08-27T01:50:25.073Z,74.10
2022-08-27T01:52:54.722Z,74.00
2022-08-27T01:55:27.409Z,73.80
2022-08-27T01:57:57.284Z,73.80
2022-08-27T02:00:28.488Z,74.10
2022-08-27T02:02:57.407Z,74.20
2022-08-27T02:05:26.589Z,74.10
2022-08-27T02:07:55.826Z,73.90
2022-08-27T02:10:29.423Z,74.10
2022-08-27T02:12:57.924Z,74.00
2022-08-27T02:15:26.848Z,73.90
2022-08-27T02:17:55.441Z,74.00
2022-08-27T02:20:27.957Z,74.20
2022-08-27T02:22:58.290Z,74.30
2022-08-27T02:25:29.154Z,74.60
2022-08-27T02:28:00.752Z,74.40
2022-08-27T02:30:32.292Z,74.20
2022-08-27T02:33:01.141Z,74.10
2022-08-27T02:35:31.047Z,74.00
2022-08-27T02:38:00.024Z,73.90
2022-08-27T02:40:30.208Z,73.70
2022-08-27T02:42:58.700Z,73.70
2022-08-27T02:45:27.238Z,73.60
2022-08-27T02:47:55.703Z,73.80
2022-08-27T02:50:26.930Z,74.20
2022-08-27T02:52:56.174Z,73.70
2022-08-27T02:55:28.180Z,73.80
2022-08-27T02:57:58.099Z,73.70
2022-08-27T03:00:29.144Z,73.70
2022-08-27T03:02:58.244Z,73.90
2022-08-27T03:05:27.238Z,73.80
2022-08-27T03:07:55.748Z,73.90
2022-08-27T03:10:24.477Z,74.10
2022-08-27T03:12:53.005Z,74.20
2022-08-27T03:15:23.117Z,74.20
2022-08-27T03:18:09.085Z,74.60
2022-08-27T03:20:44.174Z,74.20
2022-08-27T03:23:14.708Z,74.20
2022-08-27T03:25:45.862Z,74.20
2022-08-27T03:28:23.382Z,74.20
2022-08-27T03:30:58.543Z,74.20
2022-08-27T03:33:27.817Z,74.40
2022-08-27T03:35:56.551Z,74.50
2022-08-27T03:38:26.654Z,74.40
2022-08-27T03:40:55.606Z,74.40
2022-08-27T03:43:24.580Z,74.50
2022-08-27T03:46:01.463Z,74.90
2022-08-27T03:48:32.104Z,74.60
2022-08-27T03:51:01.251Z,74.70
2022-08-27T03:53:29.677Z,74.90
2022-08-27T03:55:58.964Z,74.70
2022-08-27T03:58:27.878Z,74.90
2022-08-27T04:01:02.251Z,75.00
2022-08-27T04:03:50.204Z,74.90
2022-08-27T04:06:20.037Z,74.70
2022-08-27T04:08:48.658Z,74.70
2022-08-27T04:11:17.734Z,74.90
2022-08-27T04:13:46.378Z,74.60
2022-08-27T04:16:16.426Z,74.90
2022-08-27T04:18:44.939Z,75.10
2022-08-27T04:21:18.146Z,75.20
2022-08-27T04:23:46.725Z,75.20
2022-08-27T04:26:16.975Z,75.00
2022-08-27T04:28:48.783Z,75.20
2022-08-27T04:31:26.162Z,75.30
2022-08-27T04:33:54.710Z,75.30
2022-08-27T04:36:23.107Z,75.60
2022-08-27T04:38:51.782Z,75.40
2022-08-27T04:41:27.568Z,75.50
2022-08-27T04:43:58.959Z,75.40
2022-08-27T04:46:43.269Z,75.50
2022-08-27T04:49:18.719Z,75.80
2022-08-27T04:51:48.380Z,75.90
2022-08-27T04:54:24.199Z,75.90
2022-08-27T04:57:03.867Z,75.60
2022-08-27T04:59:37.359Z,76.00
2022-08-27T05:02:12.040Z,75.60
2022-08-27T05:04:43.100Z,75.20
2022-08-27T05:07:14.282Z,75.90
2022-08-27T05:09:42.926Z,75.90
2022-08-27T05:12:13.968Z,75.40
2022-08-27T05:14:47.250Z,75.90
2022-08-27T05:17:17.253Z,75.40
2022-08-27T05:19:45.798Z,75.30
2022-08-27T05:22:20.474Z,75.40
2022-08-27T05:24:54.629Z,75.40
2022-08-27T05:27:31.719Z,75.40
2022-08-27T05:30:02.812Z,75.30
2022-08-27T05:32:44.756Z,75.20
2022-08-27T05:35:15.707Z,75.10
2022-08-27T05:37:46.093Z,74.90
2022-08-27T05:40:16.702Z,75.20
2022-08-27T05:42:51.323Z,75.40
2022-08-27T05:45:19.776Z,75.20
2022-08-27T05:47:52.287Z,75.60
2022-08-27T05:50:23.556Z,75.80
2022-08-27T05:52:56.739Z,75.60
2022-08-27T05:55:26.527Z,75.80
2022-08-27T05:57:54.930Z,75.90
2022-08-27T06:00:43.106Z,76.30
2022-08-27T06:03:13.289Z,75.90
2022-08-27T06:05:46.659Z,76.10
2022-08-27T06:08:19.411Z,76.40
2022-08-27T06:10:48.167Z,76.30
2022-08-27T06:13:19.345Z,75.90
2022-08-27T06:15:47.845Z,76.50
2022-08-27T06:18:20.462Z,76.30
2022-08-27T06:20:48.935Z,76.50
2022-08-27T06:23:19.615Z,76.50
2022-08-27T06:25:58.833Z,76.70
2022-08-27T06:28:29.751Z,76.60
2022-08-27T06:31:05.253Z,76.30
2022-08-27T06:33:35.557Z,76.30
2022-08-27T06:36:09.705Z,76.40
2022-08-27T06:38:39.849Z,76.60
2022-08-27T06:41:23.202Z,76.60
2022-08-27T06:43:55.021Z,76.40
2022-08-27T06:46:30.494Z,77.10
2022-08-27T06:49:03.363Z,76.40
2022-08-27T06:51:33.756Z,76.80
2022-08-27T06:54:05.220Z,77.10
2022-08-27T06:56:34.627Z,77.20
2022-08-27T06:59:06.228Z,77.10
2022-08-27T07:01:42.745Z,77.40
2022-08-27T07:04:17.978Z,77.10
2022-08-27T07:06:46.753Z,76.80
2022-08-27T07:09:20.717Z,76.90
2022-08-27T07:11:49.744Z,77.20
2022-08-27T07:14:18.184Z,77.10
2022-08-27T07:16:48.285Z,77.20
2022-08-27T07:19:20.176Z,77.20
2022-08-27T07:21:50.830Z,77.50
2022-08-27T07:24:19.850Z,76.90
2022-08-27T07:26:50.759Z,76.80
2022-08-27T07:29:20.849Z,76.40
2022-08-27T07:31:51.303Z,77.00
2022-08-27T07:34:28.650Z,77.00
2022-08-27T07:36:57.086Z,77.10
2022-08-27T07:39:28.707Z,77.50
2022-08-27T07:42:15.922Z,77.50
2022-08-27T07:44:45.718Z,77.60
2022-08-27T07:47:18.773Z,77.60
2022-08-27T07:49:48.715Z,77.20
2022-08-27T07:52:23.536Z,77.50
2022-08-27T07:54:57.426Z,77.70
2022-08-27T07:57:29.015Z,78.00
2022-08-27T07:59:57.520Z,77.70
2022-08-27T08:02:31.079Z,77.50
2022-08-27T08:05:01.233Z,77.80
2022-08-27T08:07:29.870Z,77.60
2022-08-27T08:09:59.584Z,77.60
2022-08-27T08:12:28.210Z,77.50
2022-08-27T08:14:58.228Z,77.70
2022-08-27T08:17:27.090Z,77.60
2022-08-27T08:20:19.573Z,77.70
2022-08-27T08:22:49.029Z,77.60
2022-08-27T08:25:18.146Z,77.30
2022-08-27T08:27:48.271Z,77.70
2022-08-27T08:30:16.998Z,77.80
2022-08-27T08:32:45.462Z,77.80
2022-08-27T08:35:14.511Z,77.70
2022-08-27T08:37:44.818Z,77.70
2022-08-27T08:40:26.876Z,77.90
2022-08-27T08:42:57.035Z,78.10
2022-08-27T08:45:32.705Z,77.80
2022-08-27T08:48:07.957Z,78.40
2022-08-27T08:50:40.645Z,78.10
2022-08-27T08:53:15.160Z,78.20
2022-08-27T08:55:48.998Z,78.30
2022-08-27T08:58:26.098Z,78.00
2022-08-27T09:01:00.188Z,78.00
2022-08-27T09:03:30.286Z,78.20
2022-08-27T09:06:04.667Z,78.00
2022-08-27T09:08:41.289Z,78.50
2022-08-27T09:11:19.059Z,78.30
2022-08-27T09:13:51.453Z,78.50
2022-08-27T09:16:24.203Z,78.10
2022-08-27T09:18:57.089Z,78.30
2022-08-27T09:21:40.449Z,78.20
2022-08-27T09:24:15.004Z,78.20
2022-08-27T09:26:47.669Z,79.40
2022-08-27T09:29:20.360Z,80.60
2022-08-27T09:32:11.515Z,80.30
2022-08-27T09:34:46.963Z,80.10
2022-08-27T09:37:17.113Z,79.90
2022-08-27T09:39:50.914Z,79.80
2022-08-27T09:42:31.819Z,79.80
2022-08-27T09:45:00.781Z,79.60
2022-08-27T09:47:29.456Z,79.50
2022-08-27T09:50:07.165Z,79.40
2022-08-27T09:52:38.983Z,79.40
2022-08-27T09:55:08.533Z,79.30
2022-08-27T09:57:42.125Z,79.30
2022-08-27T10:00:18.119Z,79.40
2022-08-27T10:02:55.153Z,79.20
2022-08-27T10:05:29.756Z,79.20
2022-08-27T10:08:02.508Z,79.20
2022-08-27T10:10:41.736Z,78.90
2022-08-27T10:13:18.588Z,79.00
2022-08-27T10:15:58.602Z,78.90
2022-08-27T10:18:41.407Z,78.70
2022-08-27T10:21:19.724Z,78.70
2022-08-27T10:23:59.613Z,78.50
2022-08-27T10:26:35.183Z,78.50
2022-08-27T10:29:14.014Z,78.40
2022-08-27T10:32:00.857Z,78.20
2022-08-27T10:34:43.246Z,78.60
2022-08-27T10:37:23.202Z,78.50
2022-08-27T10:40:04.370Z,78.50
2022-08-27T10:42:38.742Z,78.40
2022-08-27T10:45:31.131Z,78.50
2022-08-27T10:48:08.000Z,78.40
2022-08-27T10:50:42.623Z,78.30
2022-08-27T10:53:18.038Z,78.30
2022-08-27T10:55:52.551Z,78.00
2022-08-27T10:58:34.176Z,78.20
2022-08-27T11:01:08.242Z,78.20
2022-08-27T11:03:41.961Z,78.50
2022-08-27T11:06:16.903Z,78.40
2022-08-27T11:08:50.992Z,77.90
2022-08-27T11:12:10.315Z,77.90
2022-08-27T11:14:28.411Z,77.80
2022-08-27T11:17:04.641Z,78.00
2022-08-27T11:19:44.599Z,78.00
2022-08-27T11:22:26.533Z,78.20
2022-08-27T11:25:02.914Z,77.80
2022-08-27T11:27:34.319Z,77.80
2022-08-27T11:30:09.187Z,77.70
2022-08-27T11:32:50.110Z,77.70
2022-08-27T11:35:22.784Z,77.90
2022-08-27T11:38:19.315Z,77.90
2022-08-27T11:41:00.747Z,78.00
2022-08-27T11:43:34.048Z,77.80
2022-08-27T11:46:04.581Z,78.00
2022-08-27T11:48:38.352Z,78.00
2022-08-27T11:51:09.129Z,77.80
2022-08-27T11:53:42.795Z,77.70
2022-08-27T11:56:37.575Z,77.90
2022-08-27T11:59:22.271Z,77.80
2022-08-27T12:01:53.581Z,77.50
2022-08-27T12:04:35.473Z,77.20
2022-08-27T12:07:07.192Z,77.10
2022-08-27T12:10:00.927Z,77.50
2022-08-27T12:12:38.581Z,77.40
2022-08-27T12:15:13.348Z,77.30
2022-08-27T12:17:47.013Z,77.00
2022-08-27T12:20:25.039Z,77.00
2022-08-27T12:23:28.236Z,77.10
2022-08-27T12:25:58.777Z,77.10
2022-08-27T12:28:28.088Z,77.00
2022-08-27T12:30:58.854Z,76.60
2022-08-27T12:33:33.114Z,76.50
2022-08-27T12:36:11.243Z,76.20
2022-08-27T12:38:50.706Z,76.50
2022-08-27T12:41:32.119Z,76.40
2022-08-27T12:44:07.768Z,76.20
2022-08-27T12:46:45.266Z,76.40
2022-08-27T12:49:38.042Z,77.70
2022-08-27T12:52:17.471Z,80.80
2022-08-27T12:54:59.261Z,82.80
2022-08-27T12:57:35.029Z,83.50
2022-08-27T13:00:10.803Z,84.20
2022-08-27T13:02:52.428Z,84.10
2022-08-27T13:05:23.667Z,84.00
2022-08-27T13:07:55.478Z,84.70
2022-08-27T13:10:28.572Z,85.00
2022-08-27T13:13:07.856Z,85.00
2022-08-27T13:15:36.905Z,85.60
2022-08-27T13:18:08.182Z,85.70
2022-08-27T13:20:40.041Z,85.60
2022-08-27T13:23:19.818Z,85.10
2022-08-27T13:25:59.539Z,85.10
2022-08-27T13:28:30.235Z,84.90
2022-08-27T13:31:01.851Z,84.90
2022-08-27T13:33:33.665Z,84.90
2022-08-27T13:36:03.950Z,84.70
2022-08-27T13:38:36.360Z,84.90
2022-08-27T13:41:09.047Z,84.90
2022-08-27T13:43:40.539Z,84.90
2022-08-27T13:46:13.399Z,83.50
2022-08-27T13:48:43.196Z,84.50
2022-08-27T13:51:13.820Z,84.20
2022-08-27T13:54:05.724Z,83.30
2022-08-27T13:56:35.902Z,83.60
2022-08-27T13:59:12.591Z,83.80
2022-08-27T14:01:45.199Z,82.80
2022-08-27T14:04:25.370Z,84.20
2022-08-27T14:06:55.000Z,83.80
2022-08-27T14:09:27.549Z,83.60
2022-08-27T14:12:09.530Z,83.40
2022-08-27T14:14:40.210Z,83.30
2022-08-27T14:17:21.817Z,82.90
2022-08-27T14:19:50.909Z,82.90
2022-08-27T14:22:20.049Z,83.40
2022-08-27T14:24:50.120Z,83.20
2022-08-27T14:27:20.315Z,82.90
2022-08-27T14:29:49.762Z,83.10
2022-08-27T14:32:19.597Z,83.30
2022-08-27T14:34:48.630Z,83.50
2022-08-27T14:37:17.638Z,83.60
2022-08-27T14:39:49.854Z,83.50
2022-08-27T14:42:22.082Z,83.30
2022-08-27T14:44:56.328Z,83.60
2022-08-27T14:47:26.811Z,83.00
2022-08-27T14:49:56.305Z,83.30
2022-08-27T14:52:24.850Z,83.50
2022-08-27T14:54:53.400Z,83.70
2022-08-27T14:57:23.913Z,83.20
2022-08-27T14:59:52.395Z,82.50
2022-08-27T15:02:23.234Z,82.80
2022-08-27T15:04:51.845Z,83.20
2022-08-27T15:07:21.015Z,82.80
2022-08-27T15:09:52.082Z,83.10
2022-08-27T15:12:26.058Z,83.30
2022-08-27T15:14:56.072Z,83.20
2022-08-27T15:17:35.495Z,83.30
2022-08-27T15:20:11.852Z,83.60
2022-08-27T15:22:50.961Z,83.30
2022-08-27T15:25:20.899Z,82.90
2022-08-27T15:27:51.255Z,83.20
2022-08-27T15:30:25.987Z,82.70
2022-08-27T15:32:55.195Z,83.10
2022-08-27T15:35:26.911Z,83.30
2022-08-27T15:37:56.434Z,82.80
2022-08-27T15:40:26.073Z,82.40
2022-08-27T15:42:59.737Z,82.10
2022-08-27T15:45:28.759Z,82.00
2022-08-27T15:47:57.855Z,81.90
2022-08-27T15:50:27.297Z,82.10
2022-08-27T15:52:59.243Z,82.10
2022-08-27T15:55:30.555Z,82.10
2022-08-27T15:58:01.706Z,82.20
2022-08-27T16:00:34.506Z,82.20
2022-08-27T16:03:05.150Z,82.10
2022-08-27T16:05:39.380Z,82.10
2022-08-27T16:08:08.461Z,82.30
2022-08-27T16:10:37.878Z,82.60
2022-08-27T16:13:08.165Z,82.60
2022-08-27T16:15:40.847Z,82.50
2022-08-27T16:18:11.334Z,82.40
2022-08-27T16:20:39.918Z,82.70
2022-08-27T16:23:08.747Z,82.70
2022-08-27T16:25:43.184Z,82.90
2022-08-27T16:28:13.311Z,82.20
2022-08-27T16:30:42.374Z,82.10
2022-08-27T16:33:12.349Z,81.60
2022-08-27T16:35:41.330Z,81.20
2022-08-27T16:38:10.474Z,81.10
2022-08-27T16:40:42.586Z,81.20
2022-08-27T16:43:16.257Z,81.20
2022-08-27T16:45:45.005Z,81.00
2022-08-27T16:48:31.070Z,81.40
2022-08-27T16:51:00.049Z,81.20
2022-08-27T16:53:29.094Z,80.60
2022-08-27T16:55:57.709Z,80.50
2022-08-27T16:58:29.781Z,80.30
2022-08-27T17:01:03.847Z,80.30
2022-08-27T17:03:58.049Z,80.10
2022-08-27T17:06:26.080Z,79.80
2022-08-27T17:08:56.792Z,78.90
2022-08-27T17:11:28.614Z,77.90
2022-08-27T17:14:00.297Z,76.90
2022-08-27T17:16:32.169Z,76.80
2022-08-27T17:19:03.820Z,77.00
2022-08-27T17:21:33.762Z,76.60
2022-08-27T17:24:02.999Z,76.40
2022-08-27T17:26:34.381Z,76.30
2022-08-27T17:29:04.593Z,75.40
2022-08-27T17:31:36.337Z,75.20
2022-08-27T17:34:05.928Z,74.70
2022-08-27T17:36:39.417Z,74.30
2022-08-27T17:39:17.434Z,75.40
2022-08-27T17:41:54.268Z,74.40
2022-08-27T17:44:28.129Z,74.00
2022-08-27T17:46:58.724Z,74.50
2022-08-27T17:49:28.557Z,73.90
2022-08-27T17:52:02.527Z,74.00
2022-08-27T17:54:34.248Z,74.50
2022-08-27T17:57:04.487Z,73.90
2022-08-27T17:59:34.468Z,74.30
2022-08-27T18:02:04.850Z,74.20
2022-08-27T18:04:37.198Z,74.40
2022-08-27T18:07:06.180Z,74.20
2022-08-27T18:09:39.285Z,74.00
2022-08-27T18:12:08.851Z,73.70
2022-08-27T18:14:38.868Z,73.60
2022-08-27T18:17:07.710Z,73.30
2022-08-27T18:19:44.968Z,73.30
2022-08-27T18:22:20.399Z,73.10
2022-08-27T18:24:49.496Z,73.10
2022-08-27T18:27:18.643Z,73.20
2022-08-27T18:29:50.255Z,73.10
2022-08-27T18:32:25.832Z,73.00
2022-08-27T18:34:56.724Z,73.10
2022-08-27T18:37:25.769Z,73.00
2022-08-27T18:39:55.743Z,72.90
2022-08-27T18:42:24.479Z,72.90
2022-08-27T18:44:55.016Z,73.10
2022-08-27T18:47:25.229Z,72.90
2022-08-27T18:49:57.402Z,73.10
2022-08-27T18:52:26.139Z,73.00
2022-08-27T18:54:55.098Z,73.00
2022-08-27T18:57:23.983Z,73.10
2022-08-27T18:59:57.413Z,72.90
2022-08-27T19:02:26.732Z,73.10
2022-08-27T19:04:56.465Z,73.30
2022-08-27T19:07:25.252Z,73.30
2022-08-27T19:09:53.848Z,73.30
2022-08-27T19:12:22.396Z,73.30
2022-08-27T19:14:55.729Z,73.20
2022-08-27T19:17:32.043Z,73.30
2022-08-27T19:20:02.591Z,73.60
2022-08-27T19:22:32.287Z,74.30
2022-08-27T19:25:05.372Z,73.50
2022-08-27T19:27:34.341Z,73.80
2022-08-27T19:30:05.378Z,73.80
2022-08-27T19:32:33.965Z,73.60
2022-08-27T19:35:02.450Z,73.80
2022-08-27T19:37:32.545Z,73.80
2022-08-27T19:40:01.125Z,74.00
2022-08-27T19:42:30.712Z,73.70
2022-08-27T19:45:13.173Z,74.00
2022-08-27T19:47:44.701Z,74.00
2022-08-27T19:50:14.812Z,74.00
2022-08-27T19:52:47.605Z,74.20
2022-08-27T19:55:16.596Z,74.00
2022-08-27T19:57:47.543Z,74.10
2022-08-27T20:00:21.943Z,74.10
2022-08-27T20:02:50.706Z,74.00
2022-08-27T20:05:20.223Z,74.10
2022-08-27T20:07:49.404Z,74.00
2022-08-27T20:10:18.833Z,74.00
2022-08-27T20:12:47.315Z,74.00
2022-08-27T20:15:17.978Z,73.90
2022-08-27T20:17:46.560Z,73.80
2022-08-27T20:20:22.103Z,73.90
2022-08-27T20:22:50.860Z,74.00
2022-08-27T20:25:20.010Z,74.00
2022-08-27T20:27:48.534Z,74.00
2022-08-27T20:30:20.674Z,74.00
2022-08-27T20:32:49.092Z,74.00
2022-08-27T20:35:18.296Z,74.00
2022-08-27T20:37:46.671Z,73.90
2022-08-27T20:40:20.176Z,74.00
2022-08-27T20:42:48.673Z,74.20
2022-08-27T20:45:19.798Z,74.00
2022-08-27T20:47:50.148Z,73.80
2022-08-27T20:50:21.783Z,73.80
2022-08-27T20:52:52.172Z,73.50
2022-08-27T20:55:22.036Z,73.60
2022-08-27T20:58:08.305Z,73.90
2022-08-27T21:00:40.851Z,73.50
2022-08-27T21:03:09.373Z,73.40
2022-08-27T21:05:38.212Z,73.30
2022-08-27T21:08:08.206Z,72.90
2022-08-27T21:10:36.901Z,73.00
2022-08-27T21:13:08.070Z,73.00
2022-08-27T21:15:39.673Z,73.00
2022-08-27T21:18:08.430Z,73.50
2022-08-27T21:20:36.944Z,72.70
2022-08-27T21:23:05.642Z,73.20
2022-08-27T21:25:34.078Z,73.10
2022-08-27T21:28:04.057Z,73.00
2022-08-27T21:30:32.526Z,72.70
2022-08-27T21:33:02.700Z,72.50
2022-08-27T21:35:32.977Z,72.80
2022-08-27T21:38:02.009Z,72.50
2022-08-27T21:40:30.908Z,72.40
2022-08-27T21:43:01.989Z,72.80
2022-08-27T21:45:30.508Z,72.80
2022-08-27T21:47:59.280Z,72.90
2022-08-27T21:50:29.106Z,72.60
2022-08-27T21:52:57.557Z,72.60
2022-08-27T21:55:26.112Z,72.60
2022-08-27T21:57:54.492Z,72.20
2022-08-27T22:00:41.199Z,72.50
2022-08-27T22:03:13.467Z,72.40
2022-08-27T22:05:46.768Z,71.30
2022-08-27T22:08:16.941Z,72.00
2022-08-27T22:10:47.398Z,71.40
2022-08-27T22:13:16.588Z,72.40
2022-08-27T22:15:45.213Z,72.40
2022-08-27T22:18:14.063Z,72.90
2022-08-27T22:20:44.802Z,72.50
2022-08-27T22:23:14.292Z,71.90
2022-08-27T22:25:44.114Z,71.80
2022-08-27T22:28:13.993Z,72.50
2022-08-27T22:30:43.040Z,71.60
2022-08-27T22:33:12.195Z,72.00
2022-08-27T22:35:40.846Z,71.90
2022-08-27T22:38:10.943Z,72.30
2022-08-27T22:40:40.010Z,72.40
2022-08-27T22:43:08.921Z,71.90
2022-08-27T22:45:37.351Z,72.00
2022-08-27T22:48:05.918Z,71.60
2022-08-27T22:50:34.383Z,72.10
2022-08-27T22:53:02.857Z,71.60
2022-08-27T22:55:32.701Z,72.50
2022-08-27T22:58:02.616Z,72.10
2022-08-27T23:00:33.621Z,71.80
2022-08-27T23:03:02.787Z,72.00
2022-08-27T23:05:40.408Z,72.10
2022-08-27T23:08:11.788Z,71.60
2022-08-27T23:10:43.005Z,71.60
2022-08-27T23:13:13.007Z,71.20
2022-08-27T23:15:42.541Z,71.20
2022-08-27T23:18:11.723Z,71.50
2022-08-27T23:20:40.245Z,72.00
2022-08-27T23:23:10.227Z,70.90
2022-08-27T23:25:57.078Z,71.70
2022-08-27T23:28:26.901Z,71.20
2022-08-27T23:30:55.769Z,71.30
2022-08-27T23:33:24.268Z,71.40
2022-08-27T23:35:52.865Z,71.30
2022-08-27T23:38:22.144Z,71.10
2022-08-27T23:40:52.280Z,71.30
2022-08-27T23:43:21.856Z,71.40
2022-08-27T23:45:52.125Z,71.40
2022-08-27T23:48:21.461Z,71.00
2022-08-27T23:50:50.115Z,71.50
2022-08-27T23:53:18.662Z,70.80
2022-08-27T23:55:47.216Z,71.20
2022-08-27T23:58:15.771Z,71.50
